Time;durP1;ratioP1;P1;durP2;ratioP2;P2;SDS_P1;SDS_P2;PMS_P1;PMS_P2;Temp;Humidity;BMP_temperature;BMP_pressure;BME280_temperature;BME280_humidity;BME280_pressure;Samples;Min_cycle;Max_cycle;Signal;HPM_P1;HPM_P2
2022/04/18 00:02:17;;;;;;;3.73;2.60;;;5.70;99.90;;;;;;4879442;29;20184;-87
2022/04/18 00:04:43;;;;;;;3.43;2.63;;;5.60;99.90;;;;;;4880800;29;20235;-86
2022/04/18 00:07:10;;;;;;;6.77;2.30;;;5.60;99.90;;;;;;4880173;29;20179;-86
2022/04/18 00:09:36;;;;;;;4.37;2.90;;;5.50;99.90;;;;;;4898340;29;20209;-87
2022/04/18 00:12:02;;;;;;;6.43;3.17;;;5.40;99.90;;;;;;4898345;29;20218;-87
2022/04/18 00:14:28;;;;;;;4.97;2.83;;;5.40;99.90;;;;;;4898617;29;20239;-87
2022/04/18 00:16:54;;;;;;;5.73;3.43;;;5.60;99.90;;;;;;4899455;29;20196;-86
2022/04/18 00:19:20;;;;;;;3.83;3.20;;;5.60;99.90;;;;;;4899701;29;20203;-87
2022/04/18 00:21:45;;;;;;;4.43;3.23;;;5.60;99.90;;;;;;4898428;29;20186;-86
2022/04/18 00:24:11;;;;;;;5.40;3.40;;;5.70;99.90;;;;;;4898566;29;20265;-86
2022/04/18 00:26:40;;;;;;;7.30;3.30;;;5.40;99.90;;;;;;4899663;29;20595;-87
2022/04/18 00:29:07;;;;;;;5.43;3.67;;;5.30;99.90;;;;;;4899398;29;20187;-87
2022/04/18 00:31:33;;;;;;;4.90;3.53;;;5.20;99.90;;;;;;4899503;29;20215;-86
2022/04/18 00:33:58;;;;;;;4.00;3.20;;;5.20;99.90;;;;;;4893756;29;20195;-87
2022/04/18 00:36:24;;;;;;;6.73;3.07;;;5.20;99.90;;;;;;4880852;29;20184;-86
2022/04/18 00:38:50;;;;;;;5.77;3.50;;;5.30;99.90;;;;;;4892772;29;20211;-86
2022/04/18 00:41:16;;;;;;;4.13;3.13;;;5.30;99.90;;;;;;4898255;29;20180;-87
2022/04/18 00:43:44;;;;;;;5.07;3.37;;;5.30;99.90;;;;;;4898136;29;20187;-86
2022/04/18 00:46:11;;;;;;;4.60;3.20;;;5.30;99.90;;;;;;4899540;29;20781;-87
2022/04/18 00:51:22;;;;;;;5.03;3.23;;;5.40;99.90;;;;;;5296681;23;20703;-85
2022/04/18 00:53:51;;;;;;;4.87;3.73;;;5.30;99.90;;;;;;4916632;29;20186;-83
2022/04/18 00:56:18;;;;;;;5.20;3.70;;;5.30;99.90;;;;;;4917923;29;20265;-84
2022/04/18 00:58:46;;;;;;;7.10;3.83;;;5.40;99.90;;;;;;4917691;29;20257;-81
2022/04/18 01:01:13;;;;;;;6.37;3.90;;;5.30;99.90;;;;;;4916863;29;20187;-84
2022/04/18 01:03:39;;;;;;;7.70;4.07;;;5.30;99.90;;;;;;4917866;29;20189;-80
2022/04/18 01:06:05;;;;;;;6.87;3.97;;;5.30;99.90;;;;;;4916649;29;20186;-84
2022/04/18 01:08:34;;;;;;;6.27;4.33;;;5.30;99.90;;;;;;4928709;29;20617;-80
2022/04/18 01:11:01;;;;;;;6.70;4.60;;;5.20;99.90;;;;;;4935661;29;20555;-80
2022/04/18 01:13:29;;;;;;;10.47;4.67;;;5.10;99.90;;;;;;4936769;29;20174;-81
2022/04/18 01:15:56;;;;;;;6.27;4.47;;;5.00;99.90;;;;;;4936954;29;20517;-81
2022/04/18 01:18:22;;;;;;;6.40;4.03;;;5.00;99.90;;;;;;4935251;29;20190;-80
2022/04/18 01:20:48;;;;;;;6.50;4.27;;;4.90;99.90;;;;;;4936336;29;20182;-80
2022/04/18 01:23:16;;;;;;;6.70;4.00;;;4.90;99.90;;;;;;4939675;29;20182;-80
2022/04/18 01:31:11;;;;;;;6.10;4.30;;;4.70;99.90;;;;;;4940461;29;20194;-81
2022/04/18 01:33:37;;;;;;;7.33;4.50;;;4.60;99.90;;;;;;4939859;29;20621;-82
2022/04/18 01:36:02;;;;;;;7.57;4.27;;;4.60;99.90;;;;;;4940240;29;20182;-81
2022/04/18 01:38:28;;;;;;;5.07;3.90;;;4.70;99.90;;;;;;4939888;29;20182;-82
2022/04/18 01:40:54;;;;;;;5.37;4.00;;;4.70;99.90;;;;;;4939939;29;20189;-80
2022/04/18 01:43:19;;;;;;;6.00;4.20;;;4.70;99.90;;;;;;4940101;29;20182;-81
2022/04/18 01:45:45;;;;;;;6.50;4.27;;;4.60;99.90;;;;;;4938748;29;20508;-82
2022/04/18 01:48:11;;;;;;;5.47;4.10;;;4.70;99.90;;;;;;4939603;29;20241;-80
2022/04/18 01:50:38;;;;;;;6.73;4.27;;;4.60;99.90;;;;;;4939782;29;20234;-81
2022/04/18 01:53:04;;;;;;;6.70;4.40;;;4.50;99.90;;;;;;4939588;29;20174;-81
2022/04/18 01:55:30;;;;;;;7.23;4.10;;;4.50;99.90;;;;;;4939896;29;20253;-82
2022/04/18 01:57:55;;;;;;;6.37;3.97;;;4.40;99.90;;;;;;4939826;29;20212;-81
2022/04/18 02:00:21;;;;;;;5.80;4.20;;;4.30;99.90;;;;;;4939540;29;20289;-80
2022/04/18 02:02:47;;;;;;;8.10;4.03;;;4.20;99.90;;;;;;4939348;29;20177;-80
2022/04/18 02:05:13;;;;;;;7.07;3.60;;;4.10;99.90;;;;;;4939732;29;20358;-81
2022/04/18 02:07:38;;;;;;;4.97;3.60;;;4.00;99.90;;;;;;4939541;29;20260;-82
2022/04/18 02:10:05;;;;;;;5.10;2.97;;;3.90;99.90;;;;;;4939496;29;20557;-81
2022/04/18 02:12:32;;;;;;;4.97;2.87;;;3.80;99.90;;;;;;4939412;29;20185;-81
2022/04/18 02:14:58;;;;;;;4.33;3.20;;;3.70;99.90;;;;;;4939483;29;20205;-80
2022/04/18 02:17:23;;;;;;;6.30;3.00;;;3.60;99.90;;;;;;4939086;29;20520;-81
2022/04/18 02:19:49;;;;;;;8.37;3.47;;;3.50;99.90;;;;;;4938971;29;20210;-81
2022/04/18 02:22:15;;;;;;;5.97;3.33;;;3.40;99.90;;;;;;4937720;29;20692;-80
2022/04/18 02:24:41;;;;;;;5.57;3.17;;;3.30;99.90;;;;;;4937863;29;20205;-81
2022/04/18 02:27:07;;;;;;;6.40;3.50;;;3.30;99.90;;;;;;4939409;29;20174;-81
2022/04/18 02:29:34;;;;;;;4.93;2.93;;;3.30;99.90;;;;;;4938942;29;20202;-81
2022/04/18 02:33:01;;;;;;;5.43;3.43;;;3.30;99.90;;;;;;4938960;29;20185;-81
2022/04/18 02:34:55;;;;;;;9.00;3.27;;;3.40;99.90;;;;;;4930197;29;20217;-80
2022/04/18 02:37:21;;;;;;;5.57;3.57;;;3.50;99.90;;;;;;4938910;29;20202;-81
2022/04/18 02:39:46;;;;;;;5.67;3.40;;;3.60;99.90;;;;;;4938868;29;20214;-80
2022/04/18 02:42:12;;;;;;;4.63;3.20;;;3.70;99.90;;;;;;4937642;29;20185;-80
2022/04/18 02:44:38;;;;;;;6.60;3.33;;;3.60;99.90;;;;;;4937301;29;20639;-81
2022/04/18 02:47:04;;;;;;;9.67;3.73;;;3.50;99.90;;;;;;4938814;29;20323;-81
2022/04/18 02:49:31;;;;;;;5.27;3.50;;;3.50;99.90;;;;;;4938564;29;20189;-80
2022/04/18 02:51:57;;;;;;;6.40;3.80;;;3.50;99.90;;;;;;4937293;29;20232;-82
2022/04/18 02:54:22;;;;;;;6.00;3.07;;;3.40;99.90;;;;;;4938940;29;20253;-79
2022/04/18 02:56:48;;;;;;;4.93;3.37;;;3.30;99.90;;;;;;4938592;29;20257;-80
2022/04/18 02:59:14;;;;;;;5.10;3.50;;;3.30;99.90;;;;;;4938070;29;20284;-80
2022/04/18 03:01:39;;;;;;;7.27;3.93;;;3.30;99.90;;;;;;4938579;29;20605;-82
2022/04/18 03:04:05;;;;;;;9.67;4.30;;;3.40;99.90;;;;;;4937096;29;20272;-81
2022/04/18 03:06:30;;;;;;;6.37;3.57;;;3.30;99.90;;;;;;4938439;29;20509;-80
2022/04/18 03:08:56;;;;;;;6.83;3.70;;;3.30;99.90;;;;;;4937205;29;20220;-80
2022/04/18 03:11:22;;;;;;;9.30;3.93;;;3.40;99.90;;;;;;4938076;29;20183;-79
2022/04/18 03:13:47;;;;;;;7.17;4.27;;;3.30;99.90;;;;;;4937024;29;20185;-79
2022/04/18 03:16:14;;;;;;;5.60;4.00;;;3.30;99.90;;;;;;4937180;29;20184;-81
2022/04/18 03:18:40;;;;;;;9.10;4.47;;;3.40;99.90;;;;;;4937730;29;20663;-81
2022/04/18 03:21:06;;;;;;;6.87;4.20;;;3.30;99.90;;;;;;4938220;29;20186;-81
2022/04/18 03:23:33;;;;;;;6.37;4.27;;;3.30;99.90;;;;;;4938174;29;20178;-81
2022/04/18 03:25:58;;;;;;;11.43;4.20;;;3.20;99.90;;;;;;4937933;29;20178;-80
2022/04/18 03:28:25;;;;;;;5.83;3.80;;;3.30;99.90;;;;;;4936843;29;20229;-80
2022/04/18 03:30:54;;;;;;;7.07;4.37;;;3.20;99.90;;;;;;4937926;29;20188;-84
2022/04/18 03:33:20;;;;;;;6.10;3.70;;;3.20;99.90;;;;;;4937563;29;20214;-79
2022/04/18 03:41:15;;;;;;;8.33;4.33;;;3.10;99.90;;;;;;4937842;29;20271;-80
2022/04/18 03:43:42;;;;;;;7.10;4.33;;;3.10;99.90;;;;;;4937893;29;20259;-81
2022/04/18 03:46:07;;;;;;;6.20;4.17;;;3.10;99.90;;;;;;4937327;29;20173;-80
2022/04/18 03:48:33;;;;;;;8.17;4.53;;;3.20;99.90;;;;;;4937160;29;20237;-80
2022/04/18 03:50:59;;;;;;;7.33;4.23;;;3.10;99.90;;;;;;4937387;29;20709;-80
2022/04/18 03:53:25;;;;;;;7.57;4.07;;;3.20;99.90;;;;;;4937513;29;20573;-79
2022/04/18 03:55:50;;;;;;;7.03;4.53;;;3.20;99.90;;;;;;4937801;29;20256;-79
2022/04/18 03:58:16;;;;;;;6.73;4.30;;;3.10;99.90;;;;;;4937359;29;20185;-80
2022/04/18 04:00:42;;;;;;;6.07;4.03;;;3.00;99.90;;;;;;4937467;29;20225;-80
2022/04/18 04:03:12;;;;;;;7.00;4.60;;;3.00;99.90;;;;;;4937166;29;20182;-81
2022/04/18 04:05:38;;;;;;;8.60;4.80;;;3.00;99.90;;;;;;4937407;29;20594;-79
2022/04/18 04:08:05;;;;;;;7.40;4.60;;;3.00;99.90;;;;;;4937263;29;20186;-81
2022/04/18 04:10:30;;;;;;;6.33;4.23;;;3.00;99.90;;;;;;4937212;29;20202;-80
2022/04/18 04:12:56;;;;;;;10.13;4.50;;;3.00;99.90;;;;;;4937118;29;20186;-80
2022/04/18 04:15:22;;;;;;;8.53;4.60;;;3.00;99.90;;;;;;4936136;29;20215;-82
2022/04/18 04:17:47;;;;;;;7.27;4.17;;;3.00;99.90;;;;;;4935486;29;20612;-80
2022/04/18 04:20:13;;;;;;;7.93;4.80;;;2.90;99.90;;;;;;4937060;29;20710;-80
2022/04/18 04:22:49;;;;;;;8.63;4.97;;;3.10;99.90;;;;;;4936911;29;20652;-80
2022/04/18 04:25:18;;;;;;;6.87;4.80;;;3.20;99.90;;;;;;4937236;29;20213;-79
2022/04/18 04:27:44;;;;;;;10.77;5.23;;;3.30;99.90;;;;;;4937273;29;20181;-80
2022/04/18 04:30:10;;;;;;;12.20;5.67;;;3.20;99.90;;;;;;4937164;29;20188;-79
2022/04/18 04:32:36;;;;;;;8.17;4.83;;;3.10;99.90;;;;;;4936685;29;20174;-81
2022/04/18 04:35:02;;;;;;;8.87;5.00;;;3.00;99.90;;;;;;4937383;29;20182;-80
2022/04/18 04:37:27;;;;;;;7.23;4.67;;;3.00;99.90;;;;;;4934209;29;20195;-81
2022/04/18 04:39:53;;;;;;;10.00;5.33;;;3.10;99.90;;;;;;4918146;29;20280;-79
2022/04/18 04:42:19;;;;;;;7.73;5.30;;;3.20;99.90;;;;;;4917113;29;20189;-82
2022/04/18 04:44:45;;;;;;;11.60;5.53;;;3.10;99.90;;;;;;4937073;29;20173;-84
2022/04/18 04:47:11;;;;;;;7.03;4.87;;;3.10;99.90;;;;;;4937005;29;20188;-85
2022/04/18 04:49:38;;;;;;;9.20;4.87;;;3.00;99.90;;;;;;4936675;29;20190;-84
2022/04/18 04:52:05;;;;;;;8.93;5.13;;;3.00;99.90;;;;;;4936825;29;20229;-81
2022/04/18 04:54:31;;;;;;;7.90;4.53;;;2.90;99.90;;;;;;4937304;29;20178;-80
2022/04/18 04:56:57;;;;;;;7.70;5.07;;;3.00;99.90;;;;;;4937912;29;20208;-80
2022/04/18 04:59:23;;;;;;;8.23;4.90;;;3.00;99.90;;;;;;4940870;29;20644;-81
2022/04/18 05:01:48;;;;;;;9.33;5.17;;;3.10;99.90;;;;;;4940583;29;20178;-80
2022/04/18 05:04:14;;;;;;;9.07;5.60;;;3.10;99.90;;;;;;4939321;29;20605;-80
2022/04/18 05:06:40;;;;;;;7.30;5.23;;;3.20;99.90;;;;;;4939633;29;20231;-80
2022/04/18 05:09:06;;;;;;;9.93;5.30;;;3.20;99.90;;;;;;4940097;29;20267;-80
2022/04/18 05:11:33;;;;;;;9.17;4.87;;;3.40;99.90;;;;;;4940638;29;20178;-80
2022/04/18 05:13:58;;;;;;;8.57;5.37;;;3.40;99.90;;;;;;4940764;29;20188;-84
2022/04/18 05:16:24;;;;;;;7.53;5.37;;;3.50;99.90;;;;;;4940462;29;20170;-81
2022/04/18 05:18:50;;;;;;;9.00;5.50;;;3.60;99.90;;;;;;4939349;29;20216;-80
2022/04/18 05:21:16;;;;;;;9.03;5.17;;;3.70;99.90;;;;;;4940279;29;20244;-80
2022/04/18 05:23:42;;;;;;;7.77;5.10;;;3.70;99.90;;;;;;4940040;29;20194;-85
2022/04/18 05:26:08;;;;;;;9.57;5.60;;;3.80;99.90;;;;;;4930390;29;20182;-80
2022/04/18 05:28:33;;;;;;;9.30;5.53;;;3.80;99.90;;;;;;4928760;29;20176;-80
2022/04/18 05:30:59;;;;;;;7.07;5.10;;;3.90;99.90;;;;;;4929571;29;20281;-79
2022/04/18 05:33:25;;;;;;;9.27;6.37;;;3.80;99.90;;;;;;4929608;29;20249;-80
2022/04/18 05:35:51;;;;;;;9.00;5.40;;;3.90;99.90;;;;;;4934385;29;20180;-81
2022/04/18 05:38:17;;;;;;;8.97;5.50;;;3.80;99.90;;;;;;4940142;29;20188;-80
2022/04/18 05:40:43;;;;;;;9.00;6.00;;;3.90;99.90;;;;;;4939882;29;20649;-79
2022/04/18 05:43:10;;;;;;;9.30;5.80;;;3.90;99.90;;;;;;4931361;29;20233;-81
2022/04/18 05:45:38;;;;;;;8.53;5.40;;;4.00;99.90;;;;;;4925889;29;20171;-80
2022/04/18 05:48:05;;;;;;;9.43;5.77;;;4.10;99.90;;;;;;4920363;29;20175;-81
2022/04/18 05:50:31;;;;;;;10.17;5.40;;;4.20;99.90;;;;;;4920703;29;20273;-81
2022/04/18 05:52:57;;;;;;;10.17;5.60;;;4.40;99.90;;;;;;4920881;29;20186;-82
2022/04/18 05:55:23;;;;;;;10.27;5.13;;;4.50;99.90;;;;;;4919651;29;20261;-81
2022/04/18 05:57:50;;;;;;;8.53;5.23;;;4.70;99.90;;;;;;4920061;29;20194;-80
2022/04/18 06:00:16;;;;;;;8.40;4.90;;;4.80;99.90;;;;;;4928134;29;20205;-81
2022/04/18 06:02:42;;;;;;;10.07;5.60;;;5.00;99.90;;;;;;4921639;29;20202;-81
2022/04/18 06:05:08;;;;;;;6.57;5.03;;;5.10;99.90;;;;;;4919084;29;20175;-81
2022/04/18 06:07:34;;;;;;;7.93;5.20;;;5.20;99.90;;;;;;4923379;29;20182;-81
2022/04/18 06:10:03;;;;;;;7.73;5.13;;;5.30;99.90;;;;;;4939321;29;20174;-82
2022/04/18 06:12:29;;;;;;;6.77;5.03;;;5.40;99.90;;;;;;4938846;29;20205;-80
2022/04/18 06:14:55;;;;;;;7.50;5.40;;;5.50;99.90;;;;;;4939248;29;20224;-81
2022/04/18 06:17:20;;;;;;;9.90;5.60;;;5.60;99.90;;;;;;4939434;29;20185;-82
2022/04/18 06:19:46;;;;;;;8.27;5.53;;;5.70;99.90;;;;;;4938963;29;20209;-83
2022/04/18 06:22:12;;;;;;;7.43;4.80;;;5.90;99.90;;;;;;4939021;29;20236;-82
2022/04/18 06:24:37;;;;;;;9.70;5.90;;;6.00;99.90;;;;;;4938689;29;20539;-82
2022/04/18 06:27:03;;;;;;;8.87;5.57;;;6.20;99.90;;;;;;4939118;29;20166;-83
2022/04/18 06:29:29;;;;;;;7.73;5.27;;;6.30;99.90;;;;;;4938286;29;20185;-82
2022/04/18 06:31:55;;;;;;;8.13;5.50;;;6.50;99.90;;;;;;4937690;29;20212;-82
2022/04/18 06:34:21;;;;;;;12.53;5.93;;;6.60;99.90;;;;;;4938751;29;20237;-82
2022/04/18 06:36:47;;;;;;;8.20;5.30;;;6.70;99.90;;;;;;4938944;29;20162;-81
2022/04/18 06:39:12;;;;;;;8.03;5.40;;;6.80;99.90;;;;;;4937522;29;20209;-81
2022/04/18 06:41:38;;;;;;;8.43;5.67;;;6.90;99.90;;;;;;4937030;29;20196;-81
2022/04/18 06:44:04;;;;;;;7.97;5.87;;;7.00;99.90;;;;;;4918085;29;20182;-80
2022/04/18 06:46:30;;;;;;;8.67;5.93;;;7.10;99.90;;;;;;4919575;29;20167;-80
2022/04/18 06:48:56;;;;;;;7.43;5.07;;;7.20;99.90;;;;;;4924533;29;20197;-82
2022/04/18 06:51:21;;;;;;;8.33;5.57;;;7.20;99.90;;;;;;4937035;29;20225;-81
2022/04/18 06:53:47;;;;;;;9.23;5.67;;;7.30;99.90;;;;;;4937549;29;20637;-81
2022/04/18 06:58:57;;;;;;;8.30;5.67;;;7.50;99.90;;;;;;4938384;29;20249;-80
2022/04/18 07:01:22;;;;;;;9.20;6.20;;;7.70;99.90;;;;;;4938572;29;20174;-81
2022/04/18 07:03:48;;;;;;;7.77;5.70;;;7.90;99.90;;;;;;4938382;29;20201;-81
2022/04/18 07:06:14;;;;;;;7.90;5.30;;;8.00;99.90;;;;;;4938646;29;20170;-80
2022/04/18 07:08:40;;;;;;;9.53;5.53;;;8.20;99.90;;;;;;4938403;29;20212;-81
2022/04/18 07:11:05;;;;;;;7.73;5.67;;;8.40;99.90;;;;;;4938332;29;20185;-81
2022/04/18 07:13:31;;;;;;;9.37;6.00;;;8.60;99.90;;;;;;4938442;29;20185;-83
2022/04/18 07:15:57;;;;;;;9.17;6.00;;;8.80;99.90;;;;;;4938421;29;20248;-85
2022/04/18 07:18:22;;;;;;;8.90;6.13;;;8.90;99.90;;;;;;4937977;29;20205;-81
2022/04/18 07:20:48;;;;;;;9.30;5.83;;;9.10;99.90;;;;;;4937310;29;20222;-81
2022/04/18 07:23:14;;;;;;;8.43;5.47;;;9.30;99.90;;;;;;4938101;29;20171;-81
2022/04/18 07:25:40;;;;;;;8.47;5.83;;;9.50;99.90;;;;;;4937535;29;20170;-81
2022/04/18 07:28:06;;;;;;;7.57;5.63;;;9.70;99.90;;;;;;4937916;29;20212;-83
2022/04/18 07:30:32;;;;;;;11.10;5.93;;;9.80;99.90;;;;;;4937988;29;20201;-81
2022/04/18 07:32:58;;;;;;;8.13;5.47;;;9.90;99.90;;;;;;4937747;29;20205;-80
2022/04/18 07:35:24;;;;;;;11.13;6.40;;;10.00;99.90;;;;;;4936651;29;20197;-83
2022/04/18 07:40:34;;;;;;;7.77;5.23;;;10.30;99.90;;;;;;4938037;29;20253;-83
2022/04/18 07:42:59;;;;;;;9.37;5.90;;;10.60;99.90;;;;;;4937681;29;20193;-82
2022/04/18 07:45:25;;;;;;;7.77;5.20;;;10.70;99.90;;;;;;4937832;29;20182;-82
2022/04/18 07:47:52;;;;;;;9.73;5.07;;;10.70;99.90;;;;;;4936427;29;20236;-84
2022/04/18 07:50:18;;;;;;;8.23;4.93;;;10.80;99.90;;;;;;4936287;29;20324;-83
2022/04/18 07:52:44;;;;;;;10.13;6.28;;;10.90;99.90;;;;;;4935597;29;20193;-83
2022/04/18 07:55:09;;;;;;;7.33;5.40;;;11.00;99.90;;;;;;4936227;29;20189;-83
2022/04/18 07:57:37;;;;;;;8.40;5.60;;;11.10;99.90;;;;;;4936566;29;20240;-84
2022/04/18 08:00:05;;;;;;;9.60;5.47;;;11.00;99.60;;;;;;4936163;29;20217;-82
2022/04/18 08:02:32;;;;;;;8.18;5.53;;;11.10;99.90;;;;;;4936293;29;20290;-82
2022/04/18 08:04:58;;;;;;;11.73;5.85;;;11.20;99.90;;;;;;4937313;29;20274;-82
2022/04/18 08:07:23;;;;;;;9.82;5.57;;;11.30;99.40;;;;;;4937321;29;20178;-83
2022/04/18 08:09:50;;;;;;;8.25;5.90;;;11.40;99.90;;;;;;4937321;29;20182;-83
2022/04/18 08:12:16;;;;;;;8.13;5.50;;;11.50;99.10;;;;;;4936093;29;20614;-81
2022/04/18 08:14:42;;;;;;;9.57;6.30;;;11.60;99.50;;;;;;4937546;29;20224;-84
2022/04/18 08:17:08;;;;;;;8.60;5.68;;;11.60;99.30;;;;;;4936147;29;20178;-82
2022/04/18 08:19:35;;;;;;;8.90;5.53;;;11.70;98.60;;;;;;4936991;29;20288;-85
2022/04/18 08:22:02;;;;;;;8.88;5.78;;;11.70;98.20;;;;;;4935877;29;20289;-84
2022/04/18 08:24:28;;;;;;;8.20;5.55;;;11.80;99.10;;;;;;4936059;29;20201;-84
2022/04/18 08:26:54;;;;;;;7.90;5.80;;;11.90;98.50;;;;;;4937271;29;20486;-83
2022/04/18 08:29:22;;;;;;;16.45;5.70;;;12.10;98.50;;;;;;4937130;29;20181;-84
2022/04/18 08:31:48;;;;;;;7.88;5.43;;;12.20;98.20;;;;;;4935755;29;20189;-82
2022/04/18 08:34:16;;;;;;;7.18;5.05;;;12.30;97.30;;;;;;4936905;29;20182;-83
2022/04/18 08:36:42;;;;;;;8.35;5.32;;;12.30;97.10;;;;;;4936966;29;20201;-83
2022/04/18 08:39:08;;;;;;;9.50;4.97;;;12.50;96.90;;;;;;4936821;29;20717;-82
2022/04/18 08:41:38;;;;;;;7.70;5.20;;;12.40;95.70;;;;;;4935663;29;20182;-82
2022/04/18 08:44:04;;;;;;;8.85;5.25;;;12.50;95.40;;;;;;4935912;29;20521;-83
2022/04/18 08:46:31;;;;;;;9.13;4.75;;;12.50;95.10;;;;;;4935763;29;20576;-83
2022/04/18 08:54:28;;;;;;;7.43;4.50;;;12.70;95.10;;;;;;4935106;29;20173;-82
2022/04/18 08:56:55;;;;;;;8.52;5.20;;;12.90;94.70;;;;;;4929144;29;20178;-84
2022/04/18 08:59:21;;;;;;;8.73;5.40;;;12.90;94.50;;;;;;4935186;29;20198;-84
2022/04/18 09:01:52;;;;;;;7.65;4.80;;;13.00;95.10;;;;;;4927460;29;20517;-83
2022/04/18 09:04:20;;;;;;;9.70;4.55;;;13.10;95.10;;;;;;4926685;29;20183;-83
2022/04/18 09:06:46;;;;;;;6.95;5.10;;;13.30;94.60;;;;;;4929594;29;20227;-83
2022/04/18 09:09:12;;;;;;;9.77;4.80;;;13.40;93.40;;;;;;4935240;29;20229;-81
2022/04/18 09:11:37;;;;;;;6.75;4.85;;;13.40;93.30;;;;;;4920628;29;20178;-83
2022/04/18 09:14:09;;;;;;;9.15;5.75;;;13.50;93.30;;;;;;4930835;29;20621;-82
2022/04/18 09:16:36;;;;;;;6.95;4.82;;;13.60;93.60;;;;;;4925958;29;20175;-84
2022/04/18 09:19:16;;;;;;;10.05;5.10;;;13.50;92.60;;;;;;4930487;29;20202;-85
2022/04/18 09:21:58;;;;;;;6.38;4.65;;;13.50;92.80;;;;;;4920655;29;20193;-83
2022/04/18 09:24:32;;;;;;;6.15;5.07;;;13.50;93.90;;;;;;4925425;29;20206;-83
2022/04/18 09:27:09;;;;;;;7.93;5.85;;;13.60;92.10;;;;;;4929439;29;20525;-83
2022/04/18 09:29:38;;;;;;;8.02;5.05;;;13.70;92.90;;;;;;4918900;29;20177;-83
2022/04/18 09:32:12;;;;;;;7.20;5.10;;;13.90;92.80;;;;;;4928215;29;20205;-84
2022/04/18 09:34:39;;;;;;;7.13;5.93;;;13.90;92.00;;;;;;4927059;29;20404;-84
2022/04/18 09:37:17;;;;;;;8.23;5.43;;;13.90;92.00;;;;;;4920248;29;20544;-85
2022/04/18 09:39:53;;;;;;;8.55;5.20;;;13.90;92.80;;;;;;4915806;29;20512;-84
2022/04/18 09:42:22;;;;;;;8.05;5.82;;;14.10;91.70;;;;;;4924825;29;20513;-84
2022/04/18 09:44:48;;;;;;;6.97;5.47;;;14.20;91.70;;;;;;4926091;29;20199;-85
2022/04/18 09:47:18;;;;;;;7.15;5.40;;;14.20;91.70;;;;;;4935263;29;20174;-84
2022/04/18 09:49:44;;;;;;;7.53;5.53;;;14.20;91.90;;;;;;4924195;29;20249;-82
2022/04/18 09:52:12;;;;;;;6.85;4.93;;;14.20;91.50;;;;;;4938353;29;20201;-83
2022/04/18 09:54:45;;;;;;;6.68;5.45;;;14.30;90.60;;;;;;4927371;29;20210;-83
2022/04/18 09:57:11;;;;;;;6.85;5.70;;;14.40;91.10;;;;;;4934793;29;20182;-85
2022/04/18 09:59:39;;;;;;;7.07;4.63;;;14.60;89.40;;;;;;4922270;29;20210;-84
2022/04/18 10:02:08;;;;;;;7.20;5.40;;;14.50;88.70;;;;;;4931273;29;20186;-85
2022/04/18 10:04:35;;;;;;;7.50;5.47;;;14.40;89.50;;;;;;4929459;29;20186;-83
2022/04/18 10:07:02;;;;;;;7.85;5.25;;;14.50;90.40;;;;;;4925276;29;20629;-84
2022/04/18 10:09:28;;;;;;;9.80;4.78;;;14.60;90.50;;;;;;4937043;29;20538;-86
2022/04/18 10:11:54;;;;;;;7.80;4.88;;;14.60;86.30;;;;;;4932827;29;20190;-84
2022/04/18 10:14:20;;;;;;;6.32;4.45;;;14.60;86.90;;;;;;4937659;29;20300;-84
2022/04/18 10:16:46;;;;;;;5.28;4.38;;;14.60;86.40;;;;;;4939446;29;20563;-84
2022/04/18 10:19:43;;;;;;;6.07;4.65;;;14.70;86.10;;;;;;4937092;29;20213;-83
2022/04/18 10:22:21;;;;;;;8.60;4.97;;;14.80;86.60;;;;;;4923478;29;20205;-84
2022/04/18 10:24:59;;;;;;;5.88;4.47;;;14.90;83.60;;;;;;4925344;29;20216;-82
2022/04/18 10:28:06;;;;;;;5.18;4.03;;;15.00;86.10;;;;;;4938133;29;20236;-85
2022/04/18 10:30:42;;;;;;;5.20;3.92;;;15.00;85.80;;;;;;4939011;29;20200;-85
2022/04/18 10:33:11;;;;;;;5.75;3.95;;;15.00;82.30;;;;;;4937829;29;20205;-83
2022/04/18 10:35:59;;;;;;;6.07;3.75;;;15.00;82.90;;;;;;4937590;29;20186;-84
2022/04/18 10:38:26;;;;;;;3.85;3.17;;;15.20;81.20;;;;;;4936066;29;20171;-83
2022/04/18 10:41:14;;;;;;;7.07;3.40;;;15.10;79.30;;;;;;4936901;29;20217;-83
2022/04/18 10:44:03;;;;;;;6.25;3.83;;;15.20;82.30;;;;;;4937028;29;20198;-82
2022/04/18 10:46:29;;;;;;;5.75;3.85;;;15.30;81.40;;;;;;4937617;29;20184;-84
2022/04/18 10:49:18;;;;;;;4.25;3.17;;;15.30;77.60;;;;;;4937245;29;20174;-83
2022/04/18 10:51:46;;;;;;;4.30;3.28;;;15.40;79.60;;;;;;4925500;29;20233;-85
2022/04/18 10:54:12;;;;;;;5.00;3.20;;;15.30;79.10;;;;;;4917567;29;20269;-84
2022/04/18 10:56:57;;;;;;;5.35;3.50;;;15.30;77.30;;;;;;4919723;29;20613;-85
2022/04/18 10:59:45;;;;;;;5.38;3.65;;;15.40;77.50;;;;;;4918564;29;20213;-85
2022/04/18 11:02:42;;;;;;;5.60;3.83;;;15.40;76.70;;;;;;4919703;29;20166;-85
2022/04/18 11:05:08;;;;;;;5.38;3.75;;;15.40;79.20;;;;;;4919668;29;20159;-85
2022/04/18 11:07:45;;;;;;;5.60;3.30;;;15.40;78.10;;;;;;4921899;29;20221;-86
2022/04/18 11:10:19;;;;;;;5.03;3.60;;;15.60;79.60;;;;;;4937316;29;20529;-86
2022/04/18 11:12:45;;;;;;;4.75;3.28;;;15.80;77.30;;;;;;4936991;29;20249;-85
2022/04/18 11:15:11;;;;;;;5.43;2.78;;;16.10;80.60;;;;;;4936742;29;20185;-84
2022/04/18 11:17:39;;;;;;;5.75;3.38;;;16.10;76.50;;;;;;4937998;29;20174;-86
2022/04/18 11:20:23;;;;;;;3.80;2.67;;;16.20;76.70;;;;;;4936443;29;20214;-86
2022/04/18 11:23:14;;;;;;;4.43;3.10;;;16.30;74.60;;;;;;4936804;29;20621;-85
2022/04/18 11:25:56;;;;;;;4.57;3.10;;;16.40;72.50;;;;;;4937022;29;20186;-85
2022/04/18 11:28:26;;;;;;;4.07;2.78;;;16.10;73.00;;;;;;4934666;29;20277;-85
2022/04/18 11:30:52;;;;;;;4.50;3.80;;;16.10;75.60;;;;;;4931552;29;20193;-84
2022/04/18 11:33:18;;;;;;;4.40;3.00;;;16.00;74.40;;;;;;4927824;29;20174;-85
2022/04/18 11:35:43;;;;;;;4.68;3.10;;;16.10;74.00;;;;;;4926712;29;20262;-85
2022/04/18 11:38:10;;;;;;;5.18;3.40;;;16.10;73.60;;;;;;4928260;29;20213;-84
2022/04/18 11:40:40;;;;;;;4.10;3.35;;;16.00;73.20;;;;;;4925873;29;20638;-83
2022/04/18 11:43:13;;;;;;;4.18;3.45;;;16.10;72.70;;;;;;4928231;29;20178;-83
2022/04/18 11:45:39;;;;;;;5.25;3.78;;;16.10;71.90;;;;;;4937485;29;20233;-83
2022/04/18 11:48:06;;;;;;;4.35;3.20;;;16.20;70.50;;;;;;4934657;29;20190;-82
2022/04/18 11:50:36;;;;;;;4.13;3.42;;;16.30;74.70;;;;;;4925410;29;20265;-83
2022/04/18 11:53:07;;;;;;;4.60;3.55;;;16.40;72.40;;;;;;4928142;29;20190;-84
2022/04/18 11:55:43;;;;;;;4.03;3.47;;;16.40;73.40;;;;;;4926389;29;20580;-84
2022/04/18 11:58:10;;;;;;;5.32;3.67;;;16.40;70.80;;;;;;4925544;29;20181;-84
2022/04/18 12:08:50;;;;;;;5.60;3.67;;;16.40;71.10;;;;;;4931364;29;20188;-83
2022/04/18 12:11:16;;;;;;;6.68;3.40;;;16.40;68.70;;;;;;4935891;29;20185;-82
2022/04/18 12:13:43;;;;;;;4.57;3.55;;;16.60;72.10;;;;;;4934860;29;20173;-83
2022/04/18 12:16:09;;;;;;;3.92;3.25;;;16.60;72.30;;;;;;4937226;29;20265;-84
2022/04/18 12:18:35;;;;;;;5.45;3.15;;;16.80;75.70;;;;;;4936035;29;20167;-83
2022/04/18 12:21:01;;;;;;;4.07;3.35;;;16.80;73.00;;;;;;4936842;29;20217;-84
2022/04/18 12:23:27;;;;;;;4.28;3.40;;;16.80;72.00;;;;;;4935977;29;20580;-84
2022/04/18 12:25:58;;;;;;;4.35;3.33;;;17.00;71.50;;;;;;4936022;29;20613;-86
2022/04/18 12:28:29;;;;;;;6.18;3.90;;;16.90;71.00;;;;;;4936029;29;20205;-84
2022/04/18 12:30:56;;;;;;;5.05;3.13;;;16.80;70.70;;;;;;4937249;29;20253;-85
2022/04/18 12:33:24;;;;;;;4.00;3.25;;;17.00;72.30;;;;;;4937134;29;20210;-83
2022/04/18 12:35:55;;;;;;;3.78;3.00;;;17.00;70.40;;;;;;4936633;29;20585;-84
2022/04/18 12:38:34;;;;;;;4.20;3.20;;;17.20;72.70;;;;;;4935698;29;20636;-83
2022/04/18 12:41:00;;;;;;;4.20;2.85;;;17.20;69.80;;;;;;4935757;29;20201;-84
2022/04/18 12:43:32;;;;;;;3.38;2.75;;;17.40;70.20;;;;;;4937003;29;20178;-84
2022/04/18 12:45:59;;;;;;;3.70;2.80;;;17.40;71.60;;;;;;4935927;29;20252;-84
2022/04/18 12:48:36;;;;;;;3.42;2.88;;;17.50;70.50;;;;;;4935615;29;20205;-82
2022/04/18 12:51:07;;;;;;;3.85;2.83;;;17.60;69.90;;;;;;4935453;29;20236;-85
2022/04/18 12:53:44;;;;;;;4.60;3.08;;;17.60;69.30;;;;;;4936936;29;20182;-82
2022/04/18 12:56:11;;;;;;;4.13;3.08;;;17.70;70.40;;;;;;4936992;29;20343;-82
2022/04/18 12:58:41;;;;;;;3.70;2.85;;;17.90;67.90;;;;;;4937064;29;20221;-83
2022/04/18 13:01:20;;;;;;;5.18;3.10;;;17.70;67.60;;;;;;4936830;29;20189;-83
2022/04/18 13:03:45;;;;;;;3.30;2.80;;;17.30;67.30;;;;;;4935906;29;20166;-83
2022/04/18 13:06:11;;;;;;;3.80;2.30;;;17.20;68.30;;;;;;4935570;29;20675;-83
2022/04/18 13:08:38;;;;;;;4.43;2.92;;;17.20;68.10;;;;;;4935783;29;20182;-83
2022/04/18 13:11:05;;;;;;;4.13;2.88;;;17.20;67.80;;;;;;4935515;29;20517;-82
2022/04/18 13:13:31;;;;;;;4.55;2.95;;;17.10;65.80;;;;;;4937008;29;20186;-81
2022/04/18 13:15:57;;;;;;;3.70;2.33;;;17.20;67.50;;;;;;4936771;29;20202;-82
2022/04/18 13:18:26;;;;;;;4.15;2.72;;;17.30;66.70;;;;;;4937311;29;20209;-82
2022/04/18 13:20:52;;;;;;;3.65;2.45;;;17.30;66.50;;;;;;4940277;29;20237;-81
2022/04/18 13:23:19;;;;;;;5.60;2.55;;;17.30;68.50;;;;;;4940380;29;20190;-83
2022/04/18 13:25:45;;;;;;;3.80;2.60;;;17.50;68.30;;;;;;4939200;29;20201;-82
2022/04/18 13:28:15;;;;;;;3.95;2.30;;;17.40;66.70;;;;;;4938947;29;20182;-82
2022/04/18 13:30:41;;;;;;;4.97;2.60;;;17.40;67.40;;;;;;4939054;29;20182;-82